sensor_id;sensor_type;location;lat;lon;timestamp;P1;durP1;ratioP1;P2;durP2;ratioP2
14013;SDS011;49110;52.584;13.408;2022-11-20T00:00:25;9.40;;;7.07;;
14013;SDS011;49110;52.584;13.408;2022-11-20T00:01:26;10.30;;;6.67;;
14013;SDS011;49110;52.584;13.408;2022-11-20T00:02:27;9.25;;;6.80;;
14013;SDS011;49110;52.584;13.408;2022-11-20T00:03:28;8.40;;;6.70;;
14013;SDS011;49110;52.584;13.408;2022-11-20T00:04:28;11.03;;;6.60;;
14013;SDS011;49110;52.584;13.408;2022-11-20T00:05:31;7.87;;;5.97;;
14013;SDS011;49110;52.584;13.408;2022-11-20T00:06:32;10.23;;;7.20;;
14013;SDS011;49110;52.584;13.408;2022-11-20T00:07:33;11.17;;;7.10;;
14013;SDS011;49110;52.584;13.408;2022-11-20T00:08:33;9.60;;;7.30;;
14013;SDS011;49110;52.584;13.408;2022-11-20T00:09:34;8.83;;;6.67;;
14013;SDS011;49110;52.584;13.408;2022-11-20T00:10:38;9.07;;;7.20;;
14013;SDS011;49110;52.584;13.408;2022-11-20T00:11:39;8.93;;;6.53;;
14013;SDS011;49110;52.584;13.408;2022-11-20T00:12:39;10.57;;;6.80;;
14013;SDS011;49110;52.584;13.408;2022-11-20T00:13:40;10.50;;;7.17;;
14013;SDS011;49110;52.584;13.408;2022-11-20T00:14:41;12.25;;;7.65;;
14013;SDS011;49110;52.584;13.408;2022-11-20T00:15:41;8.00;;;6.40;;
14013;SDS011;49110;52.584;13.408;2022-11-20T00:16:42;10.20;;;6.63;;
14013;SDS011;49110;52.584;13.408;2022-11-20T00:17:42;8.23;;;6.93;;
14013;SDS011;49110;52.584;13.408;2022-11-20T00:18:43;9.03;;;7.07;;
14013;SDS011;49110;52.584;13.408;2022-11-20T00:19:44;10.07;;;6.95;;
14013;SDS011;49110;52.584;13.408;2022-11-20T00:20:45;10.73;;;7.07;;
14013;SDS011;49110;52.584;13.408;2022-11-20T00:21:45;10.20;;;6.90;;
14013;SDS011;49110;52.584;13.408;2022-11-20T00:22:46;9.00;;;6.90;;
14013;SDS011;49110;52.584;13.408;2022-11-20T00:23:47;8.47;;;6.23;;
14013;SDS011;49110;52.584;13.408;2022-11-20T00:24:51;9.18;;;6.72;;
14013;SDS011;49110;52.584;13.408;2022-11-20T00:25:51;9.73;;;6.73;;
14013;SDS011;49110;52.584;13.408;2022-11-20T00:26:52;10.43;;;6.03;;
14013;SDS011;49110;52.584;13.408;2022-11-20T00:27:52;8.30;;;6.70;;
14013;SDS011;49110;52.584;13.408;2022-11-20T00:28:57;10.27;;;6.70;;
14013;SDS011;49110;52.584;13.408;2022-11-20T00:29:59;9.77;;;6.80;;
14013;SDS011;49110;52.584;13.408;2022-11-20T00:31:00;9.43;;;7.27;;
14013;SDS011;49110;52.584;13.408;2022-11-20T00:32:04;8.90;;;6.18;;
14013;SDS011;49110;52.584;13.408;2022-11-20T00:33:04;9.50;;;6.33;;
14013;SDS011;49110;52.584;13.408;2022-11-20T00:34:05;9.63;;;6.57;;
14013;SDS011;49110;52.584;13.408;2022-11-20T00:35:05;8.87;;;6.53;;
14013;SDS011;49110;52.584;13.408;2022-11-20T00:36:07;10.37;;;7.13;;
14013;SDS011;49110;52.584;13.408;2022-11-20T00:37:09;10.23;;;6.97;;
14013;SDS011;49110;52.584;13.408;2022-11-20T00:38:11;8.75;;;6.50;;
14013;SDS011;49110;52.584;13.408;2022-11-20T00:39:12;9.17;;;6.40;;
14013;SDS011;49110;52.584;13.408;2022-11-20T00:40:12;9.00;;;6.80;;
14013;SDS011;49110;52.584;13.408;2022-11-20T00:41:13;9.07;;;6.10;;
14013;SDS011;49110;52.584;13.408;2022-11-20T00:42:15;11.68;;;7.30;;
14013;SDS011;49110;52.584;13.408;2022-11-20T00:43:15;8.60;;;5.97;;
14013;SDS011;49110;52.584;13.408;2022-11-20T00:44:16;7.87;;;6.33;;
14013;SDS011;49110;52.584;13.408;2022-11-20T00:45:16;12.73;;;7.07;;
14013;SDS011;49110;52.584;13.408;2022-11-20T00:46:18;11.67;;;6.80;;
14013;SDS011;49110;52.584;13.408;2022-11-20T00:47:19;9.23;;;6.68;;
14013;SDS011;49110;52.584;13.408;2022-11-20T00:48:20;8.97;;;6.70;;
14013;SDS011;49110;52.584;13.408;2022-11-20T00:49:20;8.80;;;6.87;;
14013;SDS011;49110;52.584;13.408;2022-11-20T00:50:21;8.80;;;6.90;;
14013;SDS011;49110;52.584;13.408;2022-11-20T00:51:22;8.73;;;6.20;;
14013;SDS011;49110;52.584;13.408;2022-11-20T00:52:25;9.88;;;6.97;;
14013;SDS011;49110;52.584;13.408;2022-11-20T00:53:25;12.40;;;7.53;;
14013;SDS011;49110;52.584;13.408;2022-11-20T00:54:26;10.53;;;6.83;;
14013;SDS011;49110;52.584;13.408;2022-11-20T00:55:26;10.63;;;7.77;;
14013;SDS011;49110;52.584;13.408;2022-11-20T00:56:27;9.17;;;6.30;;
14013;SDS011;49110;52.584;13.408;2022-11-20T00:57:28;10.00;;;7.05;;
14013;SDS011;49110;52.584;13.408;2022-11-20T00:58:30;8.03;;;6.40;;
14013;SDS011;49110;52.584;13.408;2022-11-20T00:59:35;10.55;;;7.35;;
14013;SDS011;49110;52.584;13.408;2022-11-20T01:00:35;8.57;;;6.43;;
14013;SDS011;49110;52.584;13.408;2022-11-20T01:01:36;9.27;;;6.60;;
14013;SDS011;49110;52.584;13.408;2022-11-20T01:02:37;9.65;;;6.40;;
14013;SDS011;49110;52.584;13.408;2022-11-20T01:03:39;9.47;;;6.27;;
14013;SDS011;49110;52.584;13.408;2022-11-20T01:04:41;11.50;;;6.88;;
14013;SDS011;49110;52.584;13.408;2022-11-20T01:05:42;9.33;;;6.37;;
14013;SDS011;49110;52.584;13.408;2022-11-20T01:06:42;9.77;;;6.77;;
14013;SDS011;49110;52.584;13.408;2022-11-20T01:07:43;10.23;;;6.10;;
14013;SDS011;49110;52.584;13.408;2022-11-20T01:08:43;9.80;;;6.50;;
14013;SDS011;49110;52.584;13.408;2022-11-20T01:09:44;10.60;;;6.63;;
14013;SDS011;49110;52.584;13.408;2022-11-20T01:10:45;11.47;;;6.77;;
14013;SDS011;49110;52.584;13.408;2022-11-20T01:11:45;11.10;;;7.23;;
14013;SDS011;49110;52.584;13.408;2022-11-20T01:12:46;9.07;;;6.50;;
14013;SDS011;49110;52.584;13.408;2022-11-20T01:14:08;11.75;;;7.00;;
14013;SDS011;49110;52.584;13.408;2022-11-20T01:15:11;11.60;;;6.80;;
14013;SDS011;49110;52.584;13.408;2022-11-20T01:16:16;11.80;;;7.40;;
14013;SDS011;49110;52.584;13.408;2022-11-20T01:17:19;10.80;;;6.82;;
14013;SDS011;49110;52.584;13.408;2022-11-20T01:18:19;8.60;;;6.47;;
14013;SDS011;49110;52.584;13.408;2022-11-20T01:19:21;10.30;;;6.77;;
14013;SDS011;49110;52.584;13.408;2022-11-20T01:20:23;8.77;;;6.47;;
14013;SDS011;49110;52.584;13.408;2022-11-20T01:21:24;9.03;;;6.57;;
14013;SDS011;49110;52.584;13.408;2022-11-20T01:22:33;9.45;;;6.80;;
14013;SDS011;49110;52.584;13.408;2022-11-20T01:23:33;10.23;;;6.53;;
14013;SDS011;49110;52.584;13.408;2022-11-20T01:24:35;9.55;;;6.90;;
14013;SDS011;49110;52.584;13.408;2022-11-20T01:25:36;9.97;;;6.43;;
14013;SDS011;49110;52.584;13.408;2022-11-20T01:26:37;12.13;;;7.60;;
14013;SDS011;49110;52.584;13.408;2022-11-20T01:27:38;9.35;;;7.05;;
14013;SDS011;49110;52.584;13.408;2022-11-20T01:28:39;10.80;;;6.93;;
14013;SDS011;49110;52.584;13.408;2022-11-20T01:29:42;7.32;;;5.97;;
14013;SDS011;49110;52.584;13.408;2022-11-20T01:30:42;11.82;;;7.47;;
14013;SDS011;49110;52.584;13.408;2022-11-20T01:31:43;9.13;;;6.93;;
14013;SDS011;49110;52.584;13.408;2022-11-20T01:32:44;10.70;;;6.43;;
14013;SDS011;49110;52.584;13.408;2022-11-20T01:33:48;8.48;;;6.00;;
14013;SDS011;49110;52.584;13.408;2022-11-20T01:34:49;10.05;;;6.90;;
14013;SDS011;49110;52.584;13.408;2022-11-20T01:35:50;9.93;;;6.03;;
14013;SDS011;49110;52.584;13.408;2022-11-20T01:36:53;10.60;;;7.37;;
14013;SDS011;49110;52.584;13.408;2022-11-20T01:37:53;10.45;;;6.72;;
14013;SDS011;49110;52.584;13.408;2022-11-20T01:38:55;11.37;;;6.97;;
14013;SDS011;49110;52.584;13.408;2022-11-20T01:39:58;10.48;;;7.03;;
14013;SDS011;49110;52.584;13.408;2022-11-20T01:40:58;12.47;;;7.20;;
14013;SDS011;49110;52.584;13.408;2022-11-20T01:41:59;12.80;;;7.10;;
14013;SDS011;49110;52.584;13.408;2022-11-20T01:43:18;10.45;;;6.78;;
14013;SDS011;49110;52.584;13.408;2022-11-20T01:44:41;10.55;;;7.38;;
14013;SDS011;49110;52.584;13.408;2022-11-20T01:47:18;9.48;;;6.82;;
14013;SDS011;49110;52.584;13.408;2022-11-20T01:48:23;12.00;;;7.28;;
14013;SDS011;49110;52.584;13.408;2022-11-20T01:49:37;11.55;;;7.22;;
14013;SDS011;49110;52.584;13.408;2022-11-20T01:50:42;10.88;;;7.63;;
14013;SDS011;49110;52.584;13.408;2022-11-20T01:51:50;15.07;;;6.70;;
14013;SDS011;49110;52.584;13.408;2022-11-20T01:52:57;9.98;;;6.93;;
14013;SDS011;49110;52.584;13.408;2022-11-20T01:54:02;11.77;;;7.05;;
14013;SDS011;49110;52.584;13.408;2022-11-20T01:55:13;12.73;;;6.60;;
14013;SDS011;49110;52.584;13.408;2022-11-20T01:56:17;9.77;;;7.07;;
14013;SDS011;49110;52.584;13.408;2022-11-20T01:57:18;12.63;;;7.47;;
14013;SDS011;49110;52.584;13.408;2022-11-20T01:58:21;10.63;;;6.80;;
14013;SDS011;49110;52.584;13.408;2022-11-20T01:59:26;10.60;;;6.90;;
14013;SDS011;49110;52.584;13.408;2022-11-20T02:00:28;10.52;;;7.20;;
14013;SDS011;49110;52.584;13.408;2022-11-20T02:01:28;10.03;;;7.27;;
14013;SDS011;49110;52.584;13.408;2022-11-20T02:02:29;11.57;;;7.07;;
14013;SDS011;49110;52.584;13.408;2022-11-20T02:03:30;11.20;;;7.03;;
14013;SDS011;49110;52.584;13.408;2022-11-20T02:04:31;11.25;;;7.68;;
14013;SDS011;49110;52.584;13.408;2022-11-20T02:07:00;8.63;;;6.82;;
14013;SDS011;49110;52.584;13.408;2022-11-20T02:08:05;9.80;;;7.22;;
14013;SDS011;49110;52.584;13.408;2022-11-20T02:09:06;10.50;;;6.78;;
14013;SDS011;49110;52.584;13.408;2022-11-20T02:10:06;9.97;;;6.57;;
14013;SDS011;49110;52.584;13.408;2022-11-20T02:11:07;10.57;;;6.60;;
14013;SDS011;49110;52.584;13.408;2022-11-20T02:12:08;9.83;;;7.63;;
14013;SDS011;49110;52.584;13.408;2022-11-20T02:13:28;8.25;;;6.53;;
14013;SDS011;49110;52.584;13.408;2022-11-20T02:14:44;9.38;;;7.20;;
14013;SDS011;49110;52.584;13.408;2022-11-20T02:15:45;11.23;;;7.27;;
14013;SDS011;49110;52.584;13.408;2022-11-20T02:16:47;8.82;;;6.55;;
14013;SDS011;49110;52.584;13.408;2022-11-20T02:17:48;12.95;;;6.40;;
14013;SDS011;49110;52.584;13.408;2022-11-20T02:18:49;11.97;;;7.40;;
14013;SDS011;49110;52.584;13.408;2022-11-20T02:19:51;8.52;;;6.68;;
14013;SDS011;49110;52.584;13.408;2022-11-20T02:20:53;9.48;;;6.35;;
14013;SDS011;49110;52.584;13.408;2022-11-20T02:22:02;10.45;;;7.22;;
14013;SDS011;49110;52.584;13.408;2022-11-20T02:23:16;10.30;;;6.75;;
14013;SDS011;49110;52.584;13.408;2022-11-20T02:24:28;9.30;;;6.65;;
14013;SDS011;49110;52.584;13.408;2022-11-20T02:25:28;9.17;;;6.53;;
14013;SDS011;49110;52.584;13.408;2022-11-20T02:27:59;10.15;;;6.65;;
14013;SDS011;49110;52.584;13.408;2022-11-20T02:29:00;9.57;;;6.97;;
14013;SDS011;49110;52.584;13.408;2022-11-20T02:30:03;9.90;;;6.40;;
14013;SDS011;49110;52.584;13.408;2022-11-20T02:31:07;10.60;;;7.35;;
14013;SDS011;49110;52.584;13.408;2022-11-20T02:32:17;9.60;;;7.00;;
14013;SDS011;49110;52.584;13.408;2022-11-20T02:33:19;11.10;;;6.68;;
14013;SDS011;49110;52.584;13.408;2022-11-20T02:34:20;9.93;;;7.13;;
14013;SDS011;49110;52.584;13.408;2022-11-20T02:36:21;8.13;;;6.33;;
14013;SDS011;49110;52.584;13.408;2022-11-20T02:37:25;10.82;;;7.15;;
14013;SDS011;49110;52.584;13.408;2022-11-20T02:38:33;9.77;;;7.03;;
14013;SDS011;49110;52.584;13.408;2022-11-20T02:39:33;8.90;;;6.63;;
14013;SDS011;49110;52.584;13.408;2022-11-20T02:40:34;10.67;;;7.00;;
14013;SDS011;49110;52.584;13.408;2022-11-20T02:41:35;9.30;;;6.57;;
14013;SDS011;49110;52.584;13.408;2022-11-20T02:42:37;10.60;;;6.90;;
14013;SDS011;49110;52.584;13.408;2022-11-20T02:43:37;10.67;;;7.60;;
14013;SDS011;49110;52.584;13.408;2022-11-20T02:44:38;11.33;;;7.07;;
14013;SDS011;49110;52.584;13.408;2022-11-20T02:45:38;11.50;;;7.43;;
14013;SDS011;49110;52.584;13.408;2022-11-20T02:46:39;9.47;;;7.13;;
14013;SDS011;49110;52.584;13.408;2022-11-20T02:47:39;10.57;;;6.90;;
14013;SDS011;49110;52.584;13.408;2022-11-20T02:48:40;11.43;;;6.70;;
14013;SDS011;49110;52.584;13.408;2022-11-20T02:49:40;12.23;;;7.43;;
14013;SDS011;49110;52.584;13.408;2022-11-20T02:50:41;8.93;;;6.87;;
14013;SDS011;49110;52.584;13.408;2022-11-20T02:51:42;9.20;;;6.70;;
14013;SDS011;49110;52.584;13.408;2022-11-20T02:52:43;10.53;;;6.87;;
14013;SDS011;49110;52.584;13.408;2022-11-20T02:53:43;10.73;;;7.30;;
14013;SDS011;49110;52.584;13.408;2022-11-20T02:54:47;12.10;;;7.38;;
14013;SDS011;49110;52.584;13.408;2022-11-20T02:55:47;12.23;;;7.43;;
14013;SDS011;49110;52.584;13.408;2022-11-20T02:56:48;10.33;;;7.03;;
14013;SDS011;49110;52.584;13.408;2022-11-20T02:57:48;10.13;;;7.10;;
14013;SDS011;49110;52.584;13.408;2022-11-20T02:58:49;9.90;;;7.00;;
14013;SDS011;49110;52.584;13.408;2022-11-20T02:59:49;9.37;;;7.10;;
14013;SDS011;49110;52.584;13.408;2022-11-20T03:00:50;11.60;;;7.83;;
14013;SDS011;49110;52.584;13.408;2022-11-20T03:01:51;10.68;;;7.38;;
14013;SDS011;49110;52.584;13.408;2022-11-20T03:02:52;14.30;;;8.13;;
14013;SDS011;49110;52.584;13.408;2022-11-20T03:03:52;9.70;;;7.37;;
14013;SDS011;49110;52.584;13.408;2022-11-20T03:04:54;11.20;;;7.63;;
14013;SDS011;49110;52.584;13.408;2022-11-20T03:05:55;9.63;;;7.43;;
14013;SDS011;49110;52.584;13.408;2022-11-20T03:06:55;12.40;;;7.30;;
14013;SDS011;49110;52.584;13.408;2022-11-20T03:07:56;9.83;;;7.30;;
14013;SDS011;49110;52.584;13.408;2022-11-20T03:08:56;9.80;;;7.00;;
14013;SDS011;49110;52.584;13.408;2022-11-20T03:09:56;10.67;;;7.43;;
14013;SDS011;49110;52.584;13.408;2022-11-20T03:11:01;11.47;;;7.40;;
14013;SDS011;49110;52.584;13.408;2022-11-20T03:12:06;11.88;;;7.70;;
14013;SDS011;49110;52.584;13.408;2022-11-20T03:13:07;9.63;;;7.47;;
14013;SDS011;49110;52.584;13.408;2022-11-20T03:14:07;12.20;;;7.70;;
14013;SDS011;49110;52.584;13.408;2022-11-20T03:15:08;9.35;;;7.22;;
14013;SDS011;49110;52.584;13.408;2022-11-20T03:16:13;11.00;;;7.57;;
14013;SDS011;49110;52.584;13.408;2022-11-20T03:17:16;10.30;;;7.28;;
14013;SDS011;49110;52.584;13.408;2022-11-20T03:18:16;8.87;;;6.73;;
14013;SDS011;49110;52.584;13.408;2022-11-20T03:19:17;12.43;;;7.33;;
14013;SDS011;49110;52.584;13.408;2022-11-20T03:20:17;10.20;;;7.53;;
14013;SDS011;49110;52.584;13.408;2022-11-20T03:21:18;11.93;;;7.77;;
14013;SDS011;49110;52.584;13.408;2022-11-20T03:22:18;10.07;;;7.43;;
14013;SDS011;49110;52.584;13.408;2022-11-20T03:23:19;9.63;;;7.00;;
14013;SDS011;49110;52.584;13.408;2022-11-20T03:24:19;12.33;;;7.97;;
14013;SDS011;49110;52.584;13.408;2022-11-20T03:25:20;10.30;;;7.83;;
14013;SDS011;49110;52.584;13.408;2022-11-20T03:26:22;11.02;;;8.15;;
14013;SDS011;49110;52.584;13.408;2022-11-20T03:27:24;11.10;;;8.13;;
14013;SDS011;49110;52.584;13.408;2022-11-20T03:28:24;11.57;;;7.60;;
14013;SDS011;49110;52.584;13.408;2022-11-20T03:29:25;13.03;;;7.80;;
14013;SDS011;49110;52.584;13.408;2022-11-20T03:30:25;10.47;;;7.17;;
14013;SDS011;49110;52.584;13.408;2022-11-20T03:31:27;10.77;;;7.53;;
14013;SDS011;49110;52.584;13.408;2022-11-20T03:32:32;10.50;;;7.20;;
14013;SDS011;49110;52.584;13.408;2022-11-20T03:33:33;12.33;;;7.93;;
14013;SDS011;49110;52.584;13.408;2022-11-20T03:34:33;11.80;;;7.47;;
14013;SDS011;49110;52.584;13.408;2022-11-20T03:35:34;10.20;;;7.67;;
14013;SDS011;49110;52.584;13.408;2022-11-20T03:36:34;9.20;;;7.27;;
14013;SDS011;49110;52.584;13.408;2022-11-20T03:37:40;10.88;;;7.50;;
14013;SDS011;49110;52.584;13.408;2022-11-20T03:38:41;11.93;;;7.73;;
14013;SDS011;49110;52.584;13.408;2022-11-20T03:39:41;10.73;;;7.17;;
14013;SDS011;49110;52.584;13.408;2022-11-20T03:40:42;11.77;;;8.20;;
14013;SDS011;49110;52.584;13.408;2022-11-20T03:41:42;11.30;;;7.67;;
14013;SDS011;49110;52.584;13.408;2022-11-20T03:42:43;11.63;;;7.23;;
14013;SDS011;49110;52.584;13.408;2022-11-20T03:43:50;10.73;;;8.02;;
14013;SDS011;49110;52.584;13.408;2022-11-20T03:44:51;10.73;;;7.85;;
14013;SDS011;49110;52.584;13.408;2022-11-20T03:45:52;10.27;;;7.33;;
14013;SDS011;49110;52.584;13.408;2022-11-20T03:46:52;10.80;;;7.50;;
14013;SDS011;49110;52.584;13.408;2022-11-20T03:47:53;13.37;;;7.67;;
14013;SDS011;49110;52.584;13.408;2022-11-20T03:48:53;12.03;;;7.97;;
14013;SDS011;49110;52.584;13.408;2022-11-20T03:49:54;10.90;;;7.93;;
14013;SDS011;49110;52.584;13.408;2022-11-20T03:52:31;12.18;;;7.88;;
14013;SDS011;49110;52.584;13.408;2022-11-20T03:53:32;12.00;;;8.07;;
14013;SDS011;49110;52.584;13.408;2022-11-20T03:54:32;13.33;;;8.37;;
14013;SDS011;49110;52.584;13.408;2022-11-20T03:55:33;10.93;;;7.97;;
14013;SDS011;49110;52.584;13.408;2022-11-20T03:56:34;11.57;;;8.63;;
14013;SDS011;49110;52.584;13.408;2022-11-20T03:57:36;9.38;;;7.18;;
14013;SDS011;49110;52.584;13.408;2022-11-20T03:58:37;10.93;;;7.70;;
14013;SDS011;49110;52.584;13.408;2022-11-20T03:59:42;9.93;;;7.80;;
14013;SDS011;49110;52.584;13.408;2022-11-20T04:00:42;10.37;;;7.97;;
14013;SDS011;49110;52.584;13.408;2022-11-20T04:01:46;11.48;;;7.90;;
14013;SDS011;49110;52.584;13.408;2022-11-20T04:02:46;11.23;;;8.03;;
14013;SDS011;49110;52.584;13.408;2022-11-20T04:03:47;9.80;;;7.77;;
14013;SDS011;49110;52.584;13.408;2022-11-20T04:04:48;14.40;;;8.00;;
14013;SDS011;49110;52.584;13.408;2022-11-20T04:05:48;11.73;;;8.27;;
14013;SDS011;49110;52.584;13.408;2022-11-20T04:06:49;10.47;;;7.40;;
14013;SDS011;49110;52.584;13.408;2022-11-20T04:07:49;9.73;;;7.80;;
14013;SDS011;49110;52.584;13.408;2022-11-20T04:08:50;13.00;;;8.07;;
14013;SDS011;49110;52.584;13.408;2022-11-20T04:09:50;11.10;;;7.57;;
14013;SDS011;49110;52.584;13.408;2022-11-20T04:10:51;11.60;;;7.70;;
14013;SDS011;49110;52.584;13.408;2022-11-20T04:11:51;12.67;;;8.60;;
14013;SDS011;49110;52.584;13.408;2022-11-20T04:12:52;12.40;;;8.23;;
14013;SDS011;49110;52.584;13.408;2022-11-20T04:13:53;13.57;;;8.67;;
14013;SDS011;49110;52.584;13.408;2022-11-20T04:14:55;9.70;;;7.65;;
14013;SDS011;49110;52.584;13.408;2022-11-20T04:15:57;12.37;;;8.40;;
14013;SDS011;49110;52.584;13.408;2022-11-20T04:16:58;9.95;;;8.02;;
14013;SDS011;49110;52.584;13.408;2022-11-20T04:17:58;10.77;;;7.40;;
14013;SDS011;49110;52.584;13.408;2022-11-20T04:19:00;12.70;;;8.17;;
14013;SDS011;49110;52.584;13.408;2022-11-20T04:20:01;9.77;;;8.15;;
14013;SDS011;49110;52.584;13.408;2022-11-20T04:21:03;10.70;;;8.00;;
14013;SDS011;49110;52.584;13.408;2022-11-20T04:22:04;12.15;;;8.43;;
14013;SDS011;49110;52.584;13.408;2022-11-20T04:23:05;10.57;;;7.40;;
14013;SDS011;49110;52.584;13.408;2022-11-20T04:24:05;10.87;;;7.63;;
14013;SDS011;49110;52.584;13.408;2022-11-20T04:25:06;9.13;;;7.00;;
14013;SDS011;49110;52.584;13.408;2022-11-20T04:26:08;12.53;;;7.80;;
14013;SDS011;49110;52.584;13.408;2022-11-20T04:27:10;10.73;;;8.07;;
14013;SDS011;49110;52.584;13.408;2022-11-20T04:28:10;11.63;;;8.07;;
14013;SDS011;49110;52.584;13.408;2022-11-20T04:29:11;11.93;;;7.93;;
14013;SDS011;49110;52.584;13.408;2022-11-20T04:30:12;12.73;;;8.30;;
14013;SDS011;49110;52.584;13.408;2022-11-20T04:31:17;12.10;;;8.17;;
14013;SDS011;49110;52.584;13.408;2022-11-20T04:32:19;13.23;;;8.05;;
14013;SDS011;49110;52.584;13.408;2022-11-20T04:33:20;10.53;;;6.77;;
14013;SDS011;49110;52.584;13.408;2022-11-20T04:34:20;12.90;;;8.97;;
14013;SDS011;49110;52.584;13.408;2022-11-20T04:35:20;13.07;;;8.20;;
14013;SDS011;49110;52.584;13.408;2022-11-20T04:36:22;12.53;;;7.90;;
14013;SDS011;49110;52.584;13.408;2022-11-20T04:37:23;12.07;;;8.45;;
14013;SDS011;49110;52.584;13.408;2022-11-20T04:38:24;11.23;;;8.17;;
14013;SDS011;49110;52.584;13.408;2022-11-20T04:39:24;12.00;;;8.80;;
14013;SDS011;49110;52.584;13.408;2022-11-20T04:40:25;11.50;;;8.63;;
14013;SDS011;49110;52.584;13.408;2022-11-20T04:41:30;11.23;;;8.30;;
14013;SDS011;49110;52.584;13.408;2022-11-20T04:42:33;13.15;;;8.48;;
14013;SDS011;49110;52.584;13.408;2022-11-20T04:43:33;11.60;;;8.27;;
14013;SDS011;49110;52.584;13.408;2022-11-20T04:44:34;11.60;;;8.00;;
14013;SDS011;49110;52.584;13.408;2022-11-20T04:45:35;12.67;;;8.23;;
14013;SDS011;49110;52.584;13.408;2022-11-20T04:46:36;13.57;;;8.97;;
14013;SDS011;49110;52.584;13.408;2022-11-20T04:47:39;13.65;;;8.20;;
14013;SDS011;49110;52.584;13.408;2022-11-20T04:48:39;13.43;;;8.67;;
14013;SDS011;49110;52.584;13.408;2022-11-20T04:49:40;11.90;;;8.03;;
14013;SDS011;49110;52.584;13.408;2022-11-20T04:50:40;12.23;;;8.47;;
14013;SDS011;49110;52.584;13.408;2022-11-20T04:51:41;11.53;;;8.40;;
14013;SDS011;49110;52.584;13.408;2022-11-20T04:52:41;13.00;;;8.30;;
14013;SDS011;49110;52.584;13.408;2022-11-20T04:53:42;11.97;;;8.57;;
14013;SDS011;49110;52.584;13.408;2022-11-20T04:54:42;10.27;;;7.80;;
14013;SDS011;49110;52.584;13.408;2022-11-20T04:55:43;11.17;;;8.07;;
14013;SDS011;49110;52.584;13.408;2022-11-20T04:56:44;12.05;;;7.97;;
14013;SDS011;49110;52.584;13.408;2022-11-20T04:57:49;11.65;;;8.20;;
14013;SDS011;49110;52.584;13.408;2022-11-20T04:58:51;15.30;;;8.82;;
14013;SDS011;49110;52.584;13.408;2022-11-20T04:59:52;15.03;;;8.97;;
14013;SDS011;49110;52.584;13.408;2022-11-20T05:00:52;13.57;;;8.43;;
14013;SDS011;49110;52.584;13.408;2022-11-20T05:01:53;10.10;;;8.20;;
14013;SDS011;49110;52.584;13.408;2022-11-20T05:02:53;11.80;;;7.83;;
14013;SDS011;49110;52.584;13.408;2022-11-20T05:03:54;12.57;;;8.83;;
14013;SDS011;49110;52.584;13.408;2022-11-20T05:04:54;13.70;;;8.57;;
14013;SDS011;49110;52.584;13.408;2022-11-20T05:05:55;13.73;;;8.87;;
14013;SDS011;49110;52.584;13.408;2022-11-20T05:06:55;12.13;;;8.43;;
14013;SDS011;49110;52.584;13.408;2022-11-20T05:07:56;12.00;;;7.93;;
14013;SDS011;49110;52.584;13.408;2022-11-20T05:08:57;11.95;;;8.38;;
14013;SDS011;49110;52.584;13.408;2022-11-20T05:09:58;13.07;;;8.43;;
14013;SDS011;49110;52.584;13.408;2022-11-20T05:11:02;13.23;;;8.43;;
14013;SDS011;49110;52.584;13.408;2022-11-20T05:12:06;12.23;;;8.60;;
14013;SDS011;49110;52.584;13.408;2022-11-20T05:13:07;13.07;;;8.60;;
14013;SDS011;49110;52.584;13.408;2022-11-20T05:14:08;11.20;;;7.90;;
14013;SDS011;49110;52.584;13.408;2022-11-20T05:15:08;10.43;;;7.47;;
14013;SDS011;49110;52.584;13.408;2022-11-20T05:16:13;11.30;;;8.40;;
14013;SDS011;49110;52.584;13.408;2022-11-20T05:17:16;13.25;;;8.05;;
14013;SDS011;49110;52.584;13.408;2022-11-20T05:18:16;12.77;;;8.63;;
14013;SDS011;49110;52.584;13.408;2022-11-20T05:19:17;12.67;;;8.10;;
14013;SDS011;49110;52.584;13.408;2022-11-20T05:20:18;11.07;;;8.40;;
14013;SDS011;49110;52.584;13.408;2022-11-20T05:21:19;11.27;;;8.23;;
14013;SDS011;49110;52.584;13.408;2022-11-20T05:22:20;17.42;;;9.02;;
14013;SDS011;49110;52.584;13.408;2022-11-20T05:23:21;12.43;;;8.83;;
14013;SDS011;49110;52.584;13.408;2022-11-20T05:24:22;11.73;;;8.67;;
14013;SDS011;49110;52.584;13.408;2022-11-20T05:25:22;10.67;;;7.70;;
14013;SDS011;49110;52.584;13.408;2022-11-20T05:26:23;12.57;;;8.00;;
14013;SDS011;49110;52.584;13.408;2022-11-20T05:27:23;11.40;;;8.00;;
14013;SDS011;49110;52.584;13.408;2022-11-20T05:28:24;10.70;;;8.20;;
14013;SDS011;49110;52.584;13.408;2022-11-20T05:29:26;12.63;;;8.60;;
14013;SDS011;49110;52.584;13.408;2022-11-20T05:30:26;12.10;;;8.40;;
14013;SDS011;49110;52.584;13.408;2022-11-20T05:31:26;11.17;;;7.90;;
14013;SDS011;49110;52.584;13.408;2022-11-20T05:32:27;13.73;;;9.03;;
14013;SDS011;49110;52.584;13.408;2022-11-20T05:33:27;10.87;;;7.83;;
14013;SDS011;49110;52.584;13.408;2022-11-20T05:34:30;12.13;;;8.60;;
14013;SDS011;49110;52.584;13.408;2022-11-20T05:35:30;13.13;;;8.75;;
14013;SDS011;49110;52.584;13.408;2022-11-20T05:36:31;10.80;;;7.97;;
14013;SDS011;49110;52.584;13.408;2022-11-20T05:37:32;11.03;;;8.23;;
14013;SDS011;49110;52.584;13.408;2022-11-20T05:38:32;10.37;;;8.23;;
14013;SDS011;49110;52.584;13.408;2022-11-20T05:39:33;12.60;;;8.27;;
14013;SDS011;49110;52.584;13.408;2022-11-20T05:40:33;13.13;;;8.27;;
14013;SDS011;49110;52.584;13.408;2022-11-20T05:41:34;10.73;;;7.93;;
14013;SDS011;49110;52.584;13.408;2022-11-20T05:42:34;10.23;;;7.90;;
14013;SDS011;49110;52.584;13.408;2022-11-20T05:43:35;12.77;;;7.70;;
14013;SDS011;49110;52.584;13.408;2022-11-20T05:44:38;12.13;;;7.88;;
14013;SDS011;49110;52.584;13.408;2022-11-20T05:45:38;13.33;;;8.47;;
14013;SDS011;49110;52.584;13.408;2022-11-20T05:46:39;15.40;;;8.47;;
14013;SDS011;49110;52.584;13.408;2022-11-20T05:47:39;11.17;;;8.00;;
14013;SDS011;49110;52.584;13.408;2022-11-20T05:48:40;12.73;;;8.93;;
14013;SDS011;49110;52.584;13.408;2022-11-20T05:49:42;14.77;;;8.88;;
14013;SDS011;49110;52.584;13.408;2022-11-20T05:50:42;11.70;;;8.00;;
14013;SDS011;49110;52.584;13.408;2022-11-20T05:51:42;14.47;;;8.77;;
14013;SDS011;49110;52.584;13.408;2022-11-20T05:52:43;10.50;;;7.60;;
14013;SDS011;49110;52.584;13.408;2022-11-20T05:53:44;12.02;;;8.45;;
14013;SDS011;49110;52.584;13.408;2022-11-20T05:54:45;12.20;;;8.70;;
14013;SDS011;49110;52.584;13.408;2022-11-20T05:55:45;12.00;;;8.00;;
14013;SDS011;49110;52.584;13.408;2022-11-20T05:56:46;13.13;;;8.03;;
14013;SDS011;49110;52.584;13.408;2022-11-20T05:57:46;10.63;;;7.77;;
14013;SDS011;49110;52.584;13.408;2022-11-20T05:58:47;11.30;;;7.80;;
14013;SDS011;49110;52.584;13.408;2022-11-20T05:59:48;13.13;;;8.98;;
14013;SDS011;49110;52.584;13.408;2022-11-20T06:00:48;11.70;;;8.33;;
14013;SDS011;49110;52.584;13.408;2022-11-20T06:01:49;10.53;;;8.07;;
14013;SDS011;49110;52.584;13.408;2022-11-20T06:02:49;14.63;;;9.00;;
14013;SDS011;49110;52.584;13.408;2022-11-20T06:03:50;9.67;;;7.87;;
14013;SDS011;49110;52.584;13.408;2022-11-20T06:04:50;11.00;;;7.33;;
14013;SDS011;49110;52.584;13.408;2022-11-20T06:05:51;11.73;;;8.33;;
14013;SDS011;49110;52.584;13.408;2022-11-20T06:06:51;13.53;;;8.53;;
14013;SDS011;49110;52.584;13.408;2022-11-20T06:07:52;11.77;;;7.97;;
14013;SDS011;49110;52.584;13.408;2022-11-20T06:08:52;11.17;;;8.50;;
14013;SDS011;49110;52.584;13.408;2022-11-20T06:09:54;13.10;;;8.52;;